createdAt,value
2018-02-08T00:01:56.137Z,-2.80
2018-02-08T00:04:23.659Z,-2.80
2018-02-08T00:06:51.144Z,-2.80
2018-02-08T00:09:18.632Z,-2.80
2018-02-08T00:11:46.146Z,-2.80
2018-02-08T00:14:14.033Z,-2.80
2018-02-08T00:16:41.920Z,-2.80
2018-02-08T00:19:09.732Z,-2.80
2018-02-08T00:21:37.220Z,-2.80
2018-02-08T00:24:04.720Z,-2.80
2018-02-08T00:26:32.599Z,-2.90
2018-02-08T00:29:00.503Z,-2.90
2018-02-08T00:31:27.994Z,-2.90
2018-02-08T00:33:55.508Z,-2.80
2018-02-08T00:36:22.992Z,-2.80
2018-02-08T00:38:50.892Z,-2.90
2018-02-08T00:41:18.384Z,-2.90
2018-02-08T00:43:46.012Z,-3.00
2018-02-08T00:46:13.886Z,-3.00
2018-02-08T00:48:41.394Z,-3.00
2018-02-08T00:51:08.880Z,-3.10
2018-02-08T00:53:36.388Z,-3.00
2018-02-08T00:56:03.972Z,-3.10
2018-02-08T00:58:31.552Z,-3.10
2018-02-08T01:00:59.447Z,-3.20
2018-02-08T01:03:27.342Z,-3.30
2018-02-08T01:05:54.827Z,-3.30
2018-02-08T01:08:22.346Z,-3.30
2018-02-08T01:10:49.822Z,-3.30
2018-02-08T01:13:17.729Z,-3.20
2018-02-08T01:15:45.217Z,-3.20
2018-02-08T01:18:12.736Z,-3.20
2018-02-08T01:20:40.228Z,-3.20
2018-02-08T01:23:08.140Z,-3.20
2018-02-08T01:25:35.622Z,-3.20
2018-02-08T01:28:03.127Z,-3.20
2018-02-08T01:30:30.612Z,-3.20
2018-02-08T01:32:58.503Z,-3.30
2018-02-08T01:35:25.987Z,-3.30
2018-02-08T01:37:53.491Z,-3.30
2018-02-08T01:40:21.017Z,-3.30
2018-02-08T01:42:48.531Z,-3.30
2018-02-08T01:45:16.008Z,-3.30
2018-02-08T01:47:43.508Z,-3.40
2018-02-08T01:50:11.416Z,-3.50
2018-02-08T01:52:38.947Z,-3.50
2018-02-08T01:55:06.449Z,-3.50
2018-02-08T01:57:33.939Z,-3.50
2018-02-08T02:00:01.448Z,-3.40
2018-02-08T02:02:28.936Z,-3.50
2018-02-08T02:04:56.445Z,-3.50
2018-02-08T02:07:23.931Z,-3.50
2018-02-08T02:09:51.433Z,-3.60
2018-02-08T02:12:18.924Z,-3.60
2018-02-08T02:14:46.898Z,-3.60
2018-02-08T02:17:14.404Z,-3.60
2018-02-08T02:19:41.908Z,-3.60
2018-02-08T02:22:09.388Z,-3.60
2018-02-08T02:24:36.896Z,-3.70
2018-02-08T02:27:04.779Z,-3.70
2018-02-08T02:29:32.680Z,-3.80
2018-02-08T02:32:00.172Z,-3.80
2018-02-08T02:34:27.680Z,-3.80
2018-02-08T02:36:55.158Z,-3.80
2018-02-08T02:39:23.060Z,-3.90
2018-02-08T02:41:50.604Z,-3.90
2018-02-08T02:44:18.112Z,-3.90
2018-02-08T02:46:45.591Z,-3.90
2018-02-08T02:49:13.097Z,-4.00
2018-02-08T02:51:40.696Z,-4.10
2018-02-08T02:54:08.616Z,-4.20
2018-02-08T02:56:36.150Z,-4.20
2018-02-08T02:59:04.057Z,-4.20
2018-02-08T03:01:31.543Z,-4.20
2018-02-08T03:03:59.044Z,-4.30
2018-02-08T03:06:26.536Z,-4.30
2018-02-08T03:08:54.044Z,-4.30
2018-02-08T03:11:21.532Z,-4.40
2018-02-08T03:13:49.060Z,-4.40
2018-02-08T03:16:16.946Z,-4.40
2018-02-08T03:18:44.828Z,-4.40
2018-02-08T03:21:12.330Z,-4.40
2018-02-08T03:23:39.819Z,-4.40
2018-02-08T03:26:07.329Z,-4.40
2018-02-08T03:28:35.300Z,-4.50
2018-02-08T03:31:09.364Z,-4.40
2018-02-08T03:33:36.846Z,-4.50
2018-02-08T03:36:04.368Z,-4.40
2018-02-08T03:38:31.931Z,-4.40
2018-02-08T03:40:59.563Z,-4.40
2018-02-08T03:43:27.051Z,-4.50
2018-02-08T03:45:54.552Z,-4.50
2018-02-08T03:48:22.123Z,-4.50
2018-02-08T03:50:49.629Z,-4.50
2018-02-08T03:53:17.116Z,-4.60
2018-02-08T03:55:44.624Z,-4.60
2018-02-08T03:58:12.116Z,-4.60
2018-02-08T04:00:40.013Z,-4.50
2018-02-08T04:03:07.491Z,-4.50
2018-02-08T04:05:35.000Z,-4.50
2018-02-08T04:08:02.485Z,-4.60
2018-02-08T04:10:29.992Z,-4.50
2018-02-08T04:12:57.872Z,-4.60
2018-02-08T04:15:25.387Z,-4.60
2018-02-08T04:17:52.862Z,-4.70
2018-02-08T04:20:20.382Z,-4.70
2018-02-08T04:22:47.889Z,-4.70
2018-02-08T04:25:15.391Z,-4.70
2018-02-08T04:27:42.938Z,-4.70
2018-02-08T04:30:10.412Z,-4.70
2018-02-08T04:32:37.887Z,-4.70
2018-02-08T04:35:05.387Z,-4.80
2018-02-08T04:37:32.871Z,-4.70
2018-02-08T04:40:12.574Z,-4.70
2018-02-08T04:42:52.015Z,-4.70
2018-02-08T04:45:31.448Z,-4.70
2018-02-08T04:48:07.743Z,-4.70
2018-02-08T04:50:35.238Z,-4.70
2018-02-08T04:53:02.719Z,-4.70
2018-02-08T04:55:30.311Z,-4.70
2018-02-08T04:57:57.812Z,-4.70
2018-02-08T05:00:25.296Z,-4.80
2018-02-08T05:03:02.093Z,-4.80
2018-02-08T05:05:29.580Z,-4.90
2018-02-08T05:07:57.104Z,-4.90
2018-02-08T05:10:24.657Z,-5.00
2018-02-08T05:12:52.564Z,-4.90
2018-02-08T05:15:20.042Z,-4.90
2018-02-08T05:17:47.576Z,-4.90
2018-02-08T05:20:15.459Z,-4.90
2018-02-08T05:22:43.355Z,-5.00
2018-02-08T05:25:10.840Z,-4.90
2018-02-08T05:27:38.344Z,-5.00
2018-02-08T05:30:05.837Z,-5.00
2018-02-08T05:32:33.334Z,-5.10
2018-02-08T05:35:01.300Z,-5.10
2018-02-08T05:37:29.203Z,-5.10
2018-02-08T05:39:56.748Z,-5.10
2018-02-08T05:42:24.256Z,-5.10
2018-02-08T05:44:51.742Z,-5.10
2018-02-08T05:47:19.248Z,-5.10
2018-02-08T05:49:46.836Z,-5.10
2018-02-08T05:52:14.737Z,-5.20
2018-02-08T05:54:42.228Z,-5.20
2018-02-08T05:57:09.722Z,-5.20
2018-02-08T05:59:37.211Z,-5.20
2018-02-08T06:02:04.717Z,-5.30
2018-02-08T06:04:32.595Z,-5.20
2018-02-08T06:07:00.491Z,-5.20
2018-02-08T06:09:27.985Z,-5.20
2018-02-08T06:11:55.489Z,-5.20
2018-02-08T06:14:22.985Z,-5.20
2018-02-08T06:16:50.892Z,-5.20
2018-02-08T06:19:18.389Z,-5.20
2018-02-08T06:21:45.886Z,-5.30
2018-02-08T06:24:13.375Z,-5.30
2018-02-08T06:26:41.299Z,-5.40
2018-02-08T06:29:08.787Z,-5.40
2018-02-08T06:31:36.271Z,-5.40
2018-02-08T06:34:03.852Z,-5.40
2018-02-08T06:36:31.740Z,-5.50
2018-02-08T06:38:59.644Z,-5.50
2018-02-08T06:41:27.163Z,-5.50
2018-02-08T06:43:54.664Z,-5.50
2018-02-08T06:46:22.538Z,-5.50
2018-02-08T06:48:50.048Z,-5.50
2018-02-08T06:51:17.549Z,-5.50
2018-02-08T06:53:45.072Z,-5.50
2018-02-08T06:56:12.581Z,-5.50
2018-02-08T06:58:40.087Z,-5.50
2018-02-08T07:01:07.576Z,-5.40
2018-02-08T07:03:35.501Z,-5.50
2018-02-08T07:06:02.980Z,-5.50
2018-02-08T07:08:30.496Z,-5.50
2018-02-08T07:10:58.380Z,-5.50
2018-02-08T07:13:26.287Z,-5.60
2018-02-08T07:15:53.775Z,-5.60
2018-02-08T07:18:21.288Z,-5.60
2018-02-08T07:20:49.255Z,-5.60
2018-02-08T07:23:16.768Z,-5.60
2018-02-08T07:25:44.309Z,-5.60
2018-02-08T07:28:12.220Z,-5.50
2018-02-08T07:30:39.712Z,-5.50
2018-02-08T07:33:07.221Z,-5.50
2018-02-08T07:35:34.731Z,-5.50
2018-02-08T07:38:02.236Z,-5.40
2018-02-08T07:40:29.731Z,-5.40
2018-02-08T07:42:57.232Z,-5.40
2018-02-08T07:45:24.717Z,-5.30
2018-02-08T07:47:52.216Z,-5.30
2018-02-08T07:50:19.698Z,-5.30
2018-02-08T07:52:47.213Z,-5.20
2018-02-08T07:55:14.694Z,-5.20
2018-02-08T07:57:42.175Z,-5.20
2018-02-08T08:00:09.703Z,-5.10
2018-02-08T08:02:37.188Z,-5.00
2018-02-08T08:05:05.095Z,-2.00
2018-02-08T08:07:32.716Z,-2.10
2018-02-08T08:10:00.224Z,-2.50
2018-02-08T08:12:27.715Z,-2.70
2018-02-08T08:14:55.225Z,-3.00
2018-02-08T08:17:22.707Z,-3.20
2018-02-08T08:19:50.212Z,-3.50
2018-02-08T08:22:17.690Z,-3.60
2018-02-08T08:24:45.205Z,-3.60
2018-02-08T08:27:12.697Z,-3.50
2018-02-08T08:29:40.600Z,-3.50
2018-02-08T08:32:08.088Z,-3.40
2018-02-08T08:34:35.590Z,-3.30
2018-02-08T08:37:03.080Z,-3.20
2018-02-08T08:39:30.656Z,-3.00
2018-02-08T08:41:58.153Z,-2.80
2018-02-08T08:44:25.652Z,-2.70
2018-02-08T08:46:53.140Z,-2.50
2018-02-08T08:49:20.661Z,-2.20
2018-02-08T08:51:48.148Z,-2.00
2018-02-08T08:54:15.642Z,-1.90
2018-02-08T08:56:43.136Z,-1.80
2018-02-08T08:59:10.644Z,-1.50
2018-02-08T09:01:38.132Z,-1.30
2018-02-08T09:04:05.635Z,-1.20
2018-02-08T09:06:33.242Z,-1.00
2018-02-08T09:09:01.140Z,-0.80
2018-02-08T09:11:28.631Z,-0.80
2018-02-08T09:13:56.135Z,-0.70
2018-02-08T09:16:23.620Z,-0.50
2018-02-08T09:18:51.104Z,-0.40
2018-02-08T09:21:19.007Z,-0.30
2018-02-08T09:23:46.500Z,-0.30
2018-02-08T09:26:14.008Z,-0.20
2018-02-08T09:28:41.500Z,-0.30
2018-02-08T09:31:09.399Z,0.00
2018-02-08T09:33:36.874Z,0.00
2018-02-08T09:36:04.384Z,-0.10
2018-02-08T09:38:31.872Z,-0.10
2018-02-08T09:40:59.371Z,-0.30
2018-02-08T09:43:26.913Z,-0.40
2018-02-08T09:45:54.420Z,-0.40
2018-02-08T09:48:21.898Z,-0.40
2018-02-08T09:50:49.408Z,-0.30
2018-02-08T09:53:16.899Z,-0.20
2018-02-08T09:55:44.406Z,0.10
2018-02-08T09:58:11.901Z,0.20
2018-02-08T10:00:39.400Z,0.30
2018-02-08T10:03:06.880Z,0.50
2018-02-08T10:05:34.381Z,0.50
2018-02-08T10:08:01.864Z,0.60
2018-02-08T10:10:29.364Z,0.30
2018-02-08T10:12:56.844Z,0.30
2018-02-08T10:15:24.345Z,0.30
2018-02-08T10:17:52.229Z,0.70
2018-02-08T10:20:20.129Z,0.70
2018-02-08T10:22:47.665Z,0.70
2018-02-08T10:25:15.172Z,0.90
2018-02-08T10:27:42.656Z,0.90
2018-02-08T10:30:10.160Z,1.20
2018-02-08T10:32:37.648Z,1.10
2018-02-08T10:35:05.155Z,1.10
2018-02-08T10:37:32.636Z,1.00
2018-02-08T10:40:00.127Z,1.10
2018-02-08T10:42:27.610Z,1.30
2018-02-08T10:44:55.112Z,1.50
2018-02-08T10:47:23.008Z,1.60
2018-02-08T10:49:50.491Z,1.60
2018-02-08T10:52:18.019Z,1.50
2018-02-08T10:54:45.488Z,2.00
2018-02-08T10:57:12.993Z,2.20
2018-02-08T10:59:40.479Z,2.30
2018-02-08T11:02:07.981Z,2.40
2018-02-08T11:04:35.468Z,2.10
2018-02-08T11:07:02.968Z,2.30
2018-02-08T11:09:30.451Z,2.30
2018-02-08T11:11:57.968Z,2.50
2018-02-08T11:14:25.447Z,2.60
2018-02-08T11:16:52.944Z,2.60
2018-02-08T11:19:20.820Z,2.40
2018-02-08T11:21:48.719Z,2.40
2018-02-08T11:24:16.199Z,2.40
2018-02-08T11:26:43.696Z,2.40
2018-02-08T11:29:11.176Z,2.30
2018-02-08T11:31:38.684Z,2.40
2018-02-08T11:34:06.677Z,2.00
2018-02-08T11:36:34.175Z,2.00
2018-02-08T11:39:01.665Z,2.00
2018-02-08T11:41:29.163Z,2.20
2018-02-08T11:43:56.741Z,2.30
2018-02-08T11:46:24.647Z,2.10
2018-02-08T11:48:52.131Z,2.10
2018-02-08T11:51:19.627Z,2.00
2018-02-08T11:53:47.102Z,1.90
2018-02-08T11:56:14.600Z,1.90
2018-02-08T11:58:42.484Z,1.90
2018-02-08T12:01:10.413Z,2.10
2018-02-08T12:03:37.883Z,2.10
2018-02-08T12:06:05.388Z,2.00
2018-02-08T12:08:32.875Z,2.10
2018-02-08T12:11:00.780Z,2.40
2018-02-08T12:13:28.263Z,2.40
2018-02-08T12:15:55.788Z,2.50
2018-02-08T12:18:23.291Z,2.30
2018-02-08T12:20:50.767Z,2.40
2018-02-08T12:23:18.272Z,2.40
2018-02-08T12:25:45.752Z,2.50
2018-02-08T12:28:13.247Z,2.40
2018-02-08T12:30:41.120Z,2.10
2018-02-08T12:33:08.695Z,2.10
2018-02-08T12:35:36.563Z,2.40
2018-02-08T12:38:04.055Z,2.40
2018-02-08T12:40:31.935Z,2.20
2018-02-08T12:42:59.827Z,2.20
2018-02-08T12:45:27.314Z,2.20
2018-02-08T12:47:54.816Z,2.30
2018-02-08T12:50:22.295Z,3.40
2018-02-08T12:52:49.798Z,3.30
2018-02-08T12:55:17.764Z,3.00
2018-02-08T12:57:45.268Z,3.00
2018-02-08T13:00:12.753Z,2.90
2018-02-08T13:02:40.261Z,2.80
2018-02-08T13:05:07.738Z,2.80
2018-02-08T13:07:36.148Z,2.90
2018-02-08T13:10:04.032Z,2.70
2018-02-08T13:12:31.923Z,2.70
2018-02-08T13:14:59.470Z,2.70
2018-02-08T13:17:27.370Z,2.80
2018-02-08T13:19:54.856Z,2.80
2018-02-08T13:22:22.388Z,2.80
2018-02-08T13:24:49.866Z,2.80
2018-02-08T13:27:17.372Z,2.60
2018-02-08T13:29:44.903Z,2.50
2018-02-08T13:32:12.786Z,2.50
2018-02-08T13:34:40.735Z,2.70
2018-02-08T13:37:08.220Z,2.70
2018-02-08T13:39:41.387Z,2.60
2018-02-08T13:42:11.511Z,2.50
2018-02-08T13:44:39.006Z,2.50
2018-02-08T13:50:36.104Z,2.40
2018-02-08T13:53:09.252Z,2.40
2018-02-08T13:55:51.883Z,2.40
2018-02-08T13:58:25.356Z,2.30
2018-02-08T14:00:53.784Z,2.30
2018-02-08T14:03:21.715Z,2.40
2018-02-08T14:05:49.231Z,2.30
2018-02-08T14:08:17.133Z,2.40
2018-02-08T14:10:44.727Z,2.40
2018-02-08T14:13:12.351Z,2.30
2018-02-08T14:15:39.856Z,2.30
2018-02-08T14:18:07.396Z,2.30
2018-02-08T14:20:34.904Z,2.20
2018-02-08T14:23:02.407Z,2.20
2018-02-08T14:25:29.904Z,2.10
2018-02-08T14:27:57.474Z,2.10
2018-02-08T14:30:24.972Z,2.20
2018-02-08T14:32:52.676Z,2.10
2018-02-08T14:35:20.174Z,2.10
2018-02-08T14:37:47.898Z,2.10
2018-02-08T14:40:15.418Z,2.10
2018-02-08T14:42:43.043Z,2.00
2018-02-08T14:45:10.589Z,2.00
2018-02-08T14:47:38.188Z,2.00
2018-02-08T14:50:05.687Z,2.10
2018-02-08T14:52:33.231Z,2.10
2018-02-08T14:55:00.782Z,2.10
2018-02-08T14:57:28.786Z,2.10
2018-02-08T14:59:56.284Z,2.10
2018-02-08T15:02:23.768Z,2.10
2018-02-08T15:04:51.267Z,2.20
2018-02-08T15:07:18.846Z,2.30
2018-02-08T15:09:46.744Z,2.10
2018-02-08T15:12:14.272Z,2.10
2018-02-08T15:14:41.772Z,2.00
2018-02-08T15:17:09.672Z,6.10
2018-02-08T15:19:37.252Z,6.10
2018-02-08T15:22:04.735Z,5.60
2018-02-08T15:24:32.436Z,5.00
2018-02-08T15:26:59.916Z,4.10
2018-02-08T15:29:27.542Z,3.70
2018-02-08T15:31:55.080Z,3.40
2018-02-08T15:34:23.223Z,3.20
2018-02-08T15:36:50.720Z,3.10
2018-02-08T15:39:18.343Z,2.90
2018-02-08T15:41:45.839Z,2.70
2018-02-08T15:44:13.486Z,2.40
2018-02-08T15:46:40.991Z,2.30
2018-02-08T15:49:08.531Z,2.20
2018-02-08T15:51:36.091Z,2.10
2018-02-08T15:54:03.677Z,2.10
2018-02-08T15:56:31.206Z,2.10
2018-02-08T15:58:58.808Z,2.00
2018-02-08T16:01:26.336Z,2.00
2018-02-08T16:03:53.925Z,2.00
2018-02-08T16:06:21.908Z,1.90
2018-02-08T16:08:49.507Z,1.90
2018-02-08T16:11:17.036Z,1.90
2018-02-08T16:13:44.514Z,1.90
2018-02-08T16:16:12.103Z,1.90
2018-02-08T16:18:40.106Z,1.70
2018-02-08T16:21:07.632Z,1.70
2018-02-08T16:23:35.120Z,1.70
2018-02-08T16:26:02.611Z,1.50
2018-02-08T16:28:30.718Z,1.40
2018-02-08T16:30:58.682Z,1.30
2018-02-08T16:33:26.174Z,1.30
2018-02-08T16:35:53.710Z,1.10
2018-02-08T16:38:21.733Z,1.00
2018-02-08T16:40:49.222Z,1.00
2018-02-08T16:43:16.716Z,0.90
2018-02-08T16:45:44.227Z,0.90
2018-02-08T16:48:11.794Z,0.90
2018-02-08T16:50:39.344Z,0.80
2018-02-08T16:53:07.346Z,0.80
2018-02-08T16:55:34.958Z,0.80
2018-02-08T16:58:02.492Z,0.80
2018-02-08T17:00:30.006Z,0.80
2018-02-08T17:02:57.512Z,0.70
2018-02-08T17:05:25.016Z,0.60
2018-02-08T17:07:52.516Z,0.50
2018-02-08T17:10:20.164Z,0.30
2018-02-08T17:12:47.675Z,0.20
2018-02-08T17:15:15.160Z,0.20
2018-02-08T17:17:42.740Z,0.10
2018-02-08T17:20:10.614Z,0.00
2018-02-08T17:22:38.527Z,0.00
2018-02-08T17:25:06.017Z,0.00
2018-02-08T17:27:33.515Z,0.00
2018-02-08T17:30:01.004Z,0.00
2018-02-08T17:32:28.913Z,-0.20
2018-02-08T17:34:56.469Z,-0.20
2018-02-08T17:37:24.443Z,-0.30
2018-02-08T17:39:51.928Z,-0.30
2018-02-08T17:42:19.829Z,-0.20
2018-02-08T17:44:47.307Z,-0.20
2018-02-08T17:47:14.819Z,-0.30
2018-02-08T17:49:42.309Z,-0.30
2018-02-08T17:52:10.204Z,-0.40
2018-02-08T17:54:37.686Z,-0.40
2018-02-08T17:57:05.182Z,-0.60
2018-02-08T17:59:32.696Z,-0.80
2018-02-08T18:02:00.200Z,-0.80
2018-02-08T18:04:27.688Z,-0.80
2018-02-08T18:06:55.192Z,-0.80
2018-02-08T18:09:22.770Z,-0.70
2018-02-08T18:11:50.391Z,-0.80
2018-02-08T18:14:17.978Z,-0.90
2018-02-08T18:16:45.472Z,-0.90
2018-02-08T18:19:13.004Z,-0.90
2018-02-08T18:21:40.479Z,-0.90
2018-02-08T18:24:08.018Z,-1.00
2018-02-08T18:26:35.903Z,-1.00
2018-02-08T18:29:03.818Z,-1.00
2018-02-08T18:31:31.340Z,-1.00
2018-02-08T18:33:58.847Z,-1.10
2018-02-08T18:36:26.323Z,-1.10
2018-02-08T18:38:53.842Z,-1.10
2018-02-08T18:41:21.432Z,-1.20
2018-02-08T18:43:49.342Z,-1.30
2018-02-08T18:46:16.822Z,-1.20
2018-02-08T18:48:44.332Z,-1.20
2018-02-08T18:51:11.823Z,-1.20
2018-02-08T18:53:39.721Z,-1.20
2018-02-08T18:56:07.224Z,-1.20
2018-02-08T18:58:34.749Z,-1.20
2018-02-08T19:01:02.624Z,-1.30
2018-02-08T19:03:30.604Z,-1.30
2018-02-08T19:05:58.492Z,-1.40
2018-02-08T19:08:26.398Z,-1.40
2018-02-08T19:10:53.879Z,-1.40
2018-02-08T19:13:21.392Z,-1.30
2018-02-08T19:15:48.885Z,-1.40
2018-02-08T19:18:16.789Z,-1.50
2018-02-08T19:20:44.299Z,-1.50
2018-02-08T19:23:11.810Z,-1.50
2018-02-08T19:25:39.692Z,-1.60
2018-02-08T19:28:07.629Z,-1.70
2018-02-08T19:30:35.090Z,-1.70
2018-02-08T19:33:02.604Z,-1.80
2018-02-08T19:35:30.478Z,-1.90
2018-02-08T19:37:58.379Z,-1.90
2018-02-08T19:40:25.855Z,-1.90
2018-02-08T19:42:53.354Z,-1.80
2018-02-08T19:45:20.871Z,-1.90
2018-02-08T19:47:48.751Z,-1.90
2018-02-08T19:50:16.652Z,-2.00
2018-02-08T19:52:44.144Z,-1.90
2018-02-08T19:55:11.644Z,-2.00
2018-02-08T19:57:39.246Z,-2.10
2018-02-08T20:00:07.224Z,-2.10
2018-02-08T20:02:35.103Z,-2.10
2018-02-08T20:05:03.003Z,-2.10
2018-02-08T20:07:30.879Z,-2.20
2018-02-08T20:09:58.816Z,-2.20
2018-02-08T20:12:26.302Z,-2.20
2018-02-08T20:14:57.301Z,-2.20
2018-02-08T20:17:24.863Z,-2.20
2018-02-08T20:19:52.360Z,-2.20
2018-02-08T20:22:19.838Z,-2.20
2018-02-08T20:24:47.345Z,-2.20
2018-02-08T20:27:14.849Z,-2.20
2018-02-08T20:29:42.400Z,-2.20
2018-02-08T20:32:10.299Z,-2.30
2018-02-08T20:34:37.813Z,-2.30
2018-02-08T20:37:05.308Z,-2.30
2018-02-08T20:39:32.840Z,-2.30
2018-02-08T20:42:00.323Z,-2.30
2018-02-08T20:44:27.832Z,-2.30
2018-02-08T20:46:55.716Z,-2.30
2018-02-08T20:49:23.731Z,-2.40
2018-02-08T20:51:51.578Z,-2.40
2018-02-08T20:54:19.552Z,-2.40
2018-02-08T20:56:47.036Z,-2.40
2018-02-08T20:59:14.591Z,-2.30
2018-02-08T21:01:42.476Z,-2.50
2018-02-08T21:04:10.379Z,-2.50
2018-02-08T21:06:37.854Z,-2.50
2018-02-08T21:09:05.344Z,-2.60
2018-02-08T21:11:32.874Z,-2.50
2018-02-08T21:14:00.748Z,-2.60
2018-02-08T21:16:28.652Z,-2.60
2018-02-08T21:18:56.178Z,-2.60
2018-02-08T21:21:23.664Z,-2.60
2018-02-08T21:23:51.146Z,-2.60
2018-02-08T21:26:19.120Z,-2.70
2018-02-08T21:28:47.042Z,-2.70
2018-02-08T21:31:14.548Z,-2.70
2018-02-08T21:33:42.036Z,-2.60
2018-02-08T21:36:09.545Z,-2.70
2018-02-08T21:38:37.071Z,-2.70
2018-02-08T21:41:04.575Z,-2.70
2018-02-08T21:43:32.059Z,-2.70
2018-02-08T21:45:59.597Z,-2.70
2018-02-08T21:48:27.076Z,-2.70
2018-02-08T21:50:54.984Z,-2.70
2018-02-08T21:53:22.525Z,-2.70
2018-02-08T21:55:50.000Z,-2.60
2018-02-08T21:58:17.895Z,-2.70
2018-02-08T22:00:45.404Z,-2.70
2018-02-08T22:03:12.897Z,-2.80
2018-02-08T22:05:40.402Z,-2.70
2018-02-08T22:08:07.947Z,-2.80
2018-02-08T22:10:35.475Z,-2.70
2018-02-08T22:13:02.955Z,-2.70
2018-02-08T22:15:30.470Z,-2.80
2018-02-08T22:17:58.444Z,-2.80
2018-02-08T22:20:26.429Z,-2.70
2018-02-08T22:22:54.399Z,-2.70
2018-02-08T22:25:21.904Z,-2.70
2018-02-08T22:27:49.391Z,-2.70
2018-02-08T22:30:16.890Z,-2.70
2018-02-08T22:32:44.395Z,-2.70
2018-02-08T22:35:12.285Z,-2.70
2018-02-08T22:37:40.192Z,-2.60
2018-02-08T22:40:07.683Z,-2.60
2018-02-08T22:42:35.203Z,-2.60
2018-02-08T22:45:03.088Z,-2.60
2018-02-08T22:47:31.048Z,-2.70
2018-02-08T22:49:58.540Z,-2.70
2018-02-08T22:52:26.508Z,-2.70
2018-02-08T22:54:54.396Z,-2.70
2018-02-08T22:57:22.304Z,-2.70
2018-02-08T22:59:49.792Z,-2.70
2018-02-08T23:02:17.295Z,-2.70
2018-02-08T23:04:44.792Z,-2.70
2018-02-08T23:07:12.756Z,-2.70
2018-02-08T23:09:40.252Z,-2.70
2018-02-08T23:12:07.755Z,-2.70
2018-02-08T23:14:35.276Z,-2.70
2018-02-08T23:17:03.179Z,-2.70
2018-02-08T23:19:30.680Z,-2.70
2018-02-08T23:21:58.193Z,-2.70
2018-02-08T23:24:26.080Z,-2.70
2018-02-08T23:26:53.979Z,-2.70
2018-02-08T23:29:21.476Z,-2.70
2018-02-08T23:31:48.980Z,-2.70
2018-02-08T23:34:16.472Z,-2.70
2018-02-08T23:36:44.376Z,-2.80
2018-02-08T23:39:11.914Z,-2.70
2018-02-08T23:41:39.422Z,-2.80
2018-02-08T23:44:06.916Z,-2.80
2018-02-08T23:46:34.421Z,-2.80
2018-02-08T23:49:02.005Z,-2.80
2018-02-08T23:51:29.509Z,-2.80
2018-02-08T23:53:56.991Z,-2.80
2018-02-08T23:56:24.485Z,-2.80
2018-02-08T23:58:51.988Z,-2.80
